createdAt,value
2019-03-15T00:01:53.731Z,77.50
2019-03-15T00:04:22.750Z,76.90
2019-03-15T00:06:51.928Z,77.60
2019-03-15T00:09:21.117Z,77.00
2019-03-15T00:11:50.213Z,77.60
2019-03-15T00:14:19.188Z,77.20
2019-03-15T00:16:48.154Z,76.80
2019-03-15T00:19:17.190Z,76.90
2019-03-15T00:21:46.128Z,77.20
2019-03-15T00:24:15.267Z,77.60
2019-03-15T00:26:44.285Z,77.30
2019-03-15T00:29:13.191Z,77.90
2019-03-15T00:31:42.154Z,78.00
2019-03-15T00:34:11.393Z,77.90
2019-03-15T00:36:40.329Z,78.50
2019-03-15T00:39:09.847Z,79.30
2019-03-15T00:41:38.799Z,79.30
2019-03-15T00:44:07.922Z,79.40
2019-03-15T00:46:36.877Z,80.00
2019-03-15T00:49:05.832Z,80.00
2019-03-15T00:51:34.729Z,80.20
2019-03-15T00:54:03.677Z,80.50
2019-03-15T00:56:32.699Z,80.80
2019-03-15T00:59:01.650Z,80.40
2019-03-15T01:01:30.591Z,80.80
2019-03-15T01:03:59.556Z,80.80
2019-03-15T01:06:28.521Z,81.40
2019-03-15T01:08:57.486Z,82.00
2019-03-15T01:11:26.418Z,82.00
2019-03-15T01:13:55.322Z,82.50
2019-03-15T01:16:24.468Z,82.30
2019-03-15T01:18:53.354Z,83.10
2019-03-15T01:21:22.299Z,83.70
2019-03-15T01:23:51.324Z,83.60
2019-03-15T01:26:20.349Z,84.30
2019-03-15T01:28:49.293Z,84.00
2019-03-15T01:31:18.200Z,84.10
2019-03-15T01:33:47.195Z,84.00
2019-03-15T01:36:18.890Z,84.50
2019-03-15T01:38:47.829Z,84.10
2019-03-15T01:41:16.944Z,84.10
2019-03-15T01:43:45.892Z,84.60
2019-03-15T01:46:14.843Z,85.40
2019-03-15T01:48:43.805Z,85.60
2019-03-15T01:51:12.873Z,85.60
2019-03-15T01:53:41.820Z,85.60
2019-03-15T01:56:10.725Z,85.20
2019-03-15T01:58:39.706Z,86.00
2019-03-15T02:01:08.649Z,85.40
2019-03-15T02:03:37.614Z,84.40
2019-03-15T02:06:06.593Z,84.70
2019-03-15T02:08:35.501Z,84.50
2019-03-15T02:11:04.699Z,84.60
2019-03-15T02:13:33.655Z,83.70
2019-03-15T02:16:02.606Z,84.40
2019-03-15T02:18:31.482Z,83.70
2019-03-15T02:21:00.423Z,84.30
2019-03-15T02:23:29.430Z,84.60
2019-03-15T02:25:58.397Z,84.70
2019-03-15T02:28:27.464Z,84.70
2019-03-15T02:30:56.380Z,85.60
2019-03-15T02:33:25.374Z,84.80
2019-03-15T02:35:54.311Z,86.60
2019-03-15T02:38:23.322Z,86.80
2019-03-15T02:40:52.408Z,87.70
2019-03-15T02:43:21.385Z,87.90
2019-03-15T02:45:50.342Z,87.60
2019-03-15T02:48:19.700Z,88.20
2019-03-15T02:50:48.591Z,88.10
2019-03-15T02:53:17.590Z,88.50
2019-03-15T02:55:48.310Z,88.90
2019-03-15T02:58:17.410Z,88.90
2019-03-15T03:00:46.434Z,90.40
2019-03-15T03:03:15.403Z,90.20
2019-03-15T03:05:44.293Z,90.40
2019-03-15T03:08:14.187Z,91.00
2019-03-15T03:10:43.514Z,91.40
2019-03-15T03:13:12.424Z,91.30
2019-03-15T03:15:41.374Z,91.50
2019-03-15T03:18:10.417Z,91.90
2019-03-15T03:20:39.357Z,92.10
2019-03-15T03:23:08.322Z,92.20
2019-03-15T03:25:37.247Z,91.70
2019-03-15T03:28:06.270Z,92.30
2019-03-15T03:30:35.250Z,92.30
2019-03-15T03:33:04.219Z,92.60
2019-03-15T03:35:33.176Z,92.80
2019-03-15T03:38:02.111Z,92.30
2019-03-15T03:40:31.254Z,92.80
2019-03-15T03:43:00.206Z,92.50
2019-03-15T03:45:29.120Z,92.70
2019-03-15T03:48:00.841Z,93.00
2019-03-15T03:50:30.569Z,92.20
2019-03-15T03:52:59.550Z,92.70
2019-03-15T03:55:28.529Z,93.00
2019-03-15T03:57:57.612Z,93.00
2019-03-15T04:00:26.718Z,92.70
2019-03-15T04:02:55.665Z,93.00
2019-03-15T04:05:24.561Z,93.30
2019-03-15T04:07:53.520Z,93.10
2019-03-15T04:10:22.396Z,93.30
2019-03-15T04:12:51.346Z,93.40
2019-03-15T04:15:20.244Z,93.30
2019-03-15T04:17:49.183Z,93.10
2019-03-15T04:20:18.095Z,92.80
2019-03-15T04:22:47.094Z,93.30
2019-03-15T04:25:15.958Z,92.70
2019-03-15T04:27:44.936Z,93.00
2019-03-15T04:30:14.451Z,93.30
2019-03-15T04:32:43.354Z,93.40
2019-03-15T04:35:12.301Z,93.50
2019-03-15T04:37:41.306Z,93.10
2019-03-15T04:40:11.856Z,92.90
2019-03-15T04:42:40.855Z,92.60
2019-03-15T04:45:09.913Z,92.70
2019-03-15T04:47:38.856Z,93.10
2019-03-15T04:50:08.599Z,93.60
2019-03-15T04:52:37.488Z,93.70
2019-03-15T04:55:07.066Z,93.90
2019-03-15T04:57:35.983Z,93.70
2019-03-15T05:00:09.859Z,93.90
2019-03-15T05:02:38.894Z,93.90
2019-03-15T05:05:07.889Z,93.80
2019-03-15T05:07:36.840Z,93.60
2019-03-15T05:10:08.246Z,93.60
2019-03-15T05:12:37.282Z,93.60
2019-03-15T05:15:09.188Z,93.40
2019-03-15T05:17:38.161Z,93.40
2019-03-15T05:20:09.042Z,93.40
2019-03-15T05:22:38.004Z,93.30
2019-03-15T05:25:08.412Z,93.60
2019-03-15T05:27:37.361Z,93.80
2019-03-15T05:30:09.570Z,93.70
2019-03-15T05:32:38.469Z,93.40
2019-03-15T05:35:07.759Z,93.70
2019-03-15T05:37:36.674Z,93.00
2019-03-15T05:40:07.526Z,93.20
2019-03-15T05:42:55.695Z,93.00
2019-03-15T05:45:24.722Z,93.00
2019-03-15T05:47:55.217Z,92.60
2019-03-15T05:50:28.332Z,92.40
2019-03-15T05:52:58.189Z,92.20
2019-03-15T05:55:27.112Z,92.10
2019-03-15T05:57:56.061Z,92.10
2019-03-15T06:00:24.969Z,92.30
2019-03-15T06:03:02.645Z,92.60
2019-03-15T06:05:44.863Z,92.30
2019-03-15T06:08:29.064Z,92.70
2019-03-15T06:11:09.627Z,92.40
2019-03-15T06:13:36.286Z,92.30
2019-03-15T06:16:05.185Z,92.70
2019-03-15T06:18:34.198Z,92.60
2019-03-15T06:21:03.383Z,92.40
2019-03-15T06:23:32.436Z,92.40
2019-03-15T06:26:01.504Z,92.50
2019-03-15T06:32:42.460Z,92.70
2019-03-15T06:35:19.618Z,92.70
2019-03-15T06:37:49.657Z,92.70
2019-03-15T06:43:01.641Z,92.70
2019-03-15T06:45:32.651Z,93.00
2019-03-15T06:48:02.749Z,92.80
2019-03-15T06:50:32.943Z,93.20
2019-03-15T06:53:03.033Z,93.30
2019-03-15T06:55:33.401Z,93.30
2019-03-15T06:58:03.745Z,93.20
2019-03-15T07:00:33.898Z,93.80
2019-03-15T07:03:03.619Z,93.50
2019-03-15T07:05:36.688Z,93.30
2019-03-15T07:08:07.386Z,93.30
2019-03-15T07:13:43.346Z,93.40
2019-03-15T07:16:22.781Z,93.80
2019-03-15T07:18:52.496Z,93.60
2019-03-15T07:21:22.159Z,93.50
2019-03-15T07:30:17.365Z,93.40
2019-03-15T07:33:14.624Z,93.20
2019-03-15T07:36:28.365Z,92.60
2019-03-15T07:38:57.368Z,92.20
2019-03-15T07:41:40.018Z,91.30
2019-03-15T07:44:20.303Z,90.80
2019-03-15T07:46:51.223Z,90.60
2019-03-15T07:49:20.574Z,90.60
2019-03-15T07:58:30.306Z,90.00
2019-03-15T08:00:59.484Z,88.80
2019-03-15T08:07:09.053Z,86.40
2019-03-15T08:09:37.964Z,84.90
2019-03-15T08:15:26.692Z,83.60
2019-03-15T08:23:15.973Z,81.10
2019-03-15T08:24:24.400Z,82.80
2019-03-15T08:25:46.732Z,81.70
2019-03-15T08:28:15.765Z,82.20
2019-03-15T08:30:44.768Z,81.70
2019-03-15T08:33:13.944Z,80.80
2019-03-15T08:35:43.096Z,80.60
2019-03-15T08:42:12.345Z,80.20
2019-03-15T08:44:41.339Z,79.80
2019-03-15T08:50:52.511Z,78.50
2019-03-15T08:53:16.963Z,78.60
2019-03-15T08:55:45.991Z,78.90
2019-03-15T09:01:42.192Z,74.90
2019-03-15T09:04:11.144Z,75.20
2019-03-15T09:16:18.886Z,73.70
2019-03-15T09:18:48.021Z,70.20
2019-03-15T09:21:19.894Z,69.40
2019-03-15T09:23:52.431Z,70.40
2019-03-15T09:26:23.292Z,69.70
2019-03-15T09:29:11.244Z,68.60
2019-03-15T09:34:43.919Z,66.80
2019-03-15T09:37:20.286Z,66.30
2019-03-15T09:40:16.736Z,64.30
2019-03-15T09:42:44.378Z,64.40
2019-03-15T09:45:17.992Z,64.70
2019-03-15T09:47:47.579Z,65.90
2019-03-15T09:50:26.384Z,63.00
2019-03-15T09:53:09.690Z,61.60
2019-03-15T10:01:34.841Z,61.30
2019-03-15T10:03:53.090Z,60.80
2019-03-15T10:06:26.275Z,59.30
2019-03-15T10:08:55.334Z,60.40
2019-03-15T10:11:35.258Z,60.90
2019-03-15T10:14:04.579Z,60.20
2019-03-15T10:16:33.733Z,61.20
2019-03-15T10:19:02.809Z,59.70
2019-03-15T10:21:33.501Z,60.20
2019-03-15T10:24:02.571Z,59.50
2019-03-15T10:29:57.106Z,57.80
2019-03-15T10:32:28.513Z,58.00
2019-03-15T10:35:27.359Z,56.70
2019-03-15T10:37:56.525Z,56.80
2019-03-15T10:40:25.974Z,57.30
2019-03-15T10:43:07.484Z,57.50
2019-03-15T10:48:29.153Z,56.10
2019-03-15T10:51:45.470Z,55.90
2019-03-15T10:54:13.581Z,55.50
2019-03-15T10:56:42.539Z,54.60
2019-03-15T10:59:16.546Z,54.00
2019-03-15T11:01:45.565Z,54.90
2019-03-15T11:04:14.897Z,53.30
2019-03-15T11:06:43.883Z,52.70
2019-03-15T11:09:12.986Z,53.00
2019-03-15T11:11:42.141Z,53.30
2019-03-15T11:14:12.786Z,52.80
2019-03-15T11:16:41.754Z,52.80
2019-03-15T11:19:22.778Z,51.20
2019-03-15T11:21:51.934Z,52.70
2019-03-15T11:24:21.309Z,51.10
2019-03-15T11:26:50.312Z,50.90
2019-03-15T11:29:19.328Z,52.30
2019-03-15T11:31:48.523Z,51.10
2019-03-15T11:34:17.608Z,50.10
2019-03-15T11:36:57.911Z,50.10
2019-03-15T11:39:17.552Z,50.20
2019-03-15T11:41:56.718Z,49.10
2019-03-15T11:44:25.802Z,49.30
2019-03-15T11:46:54.876Z,50.90
2019-03-15T11:49:28.005Z,51.90
2019-03-15T11:52:16.802Z,51.50
2019-03-15T11:54:49.592Z,51.60
2019-03-15T12:00:15.774Z,51.10
2019-03-15T12:02:44.937Z,51.60
2019-03-15T12:05:14.822Z,51.70
2019-03-15T12:11:03.524Z,51.80
2019-03-15T12:13:32.569Z,50.20
2019-03-15T12:16:01.634Z,48.00
2019-03-15T12:18:32.272Z,50.00
2019-03-15T12:21:25.117Z,48.20
2019-03-15T12:27:22.519Z,47.80
2019-03-15T12:29:51.978Z,47.10
2019-03-15T12:32:23.602Z,48.30
2019-03-15T12:34:52.189Z,50.00
2019-03-15T12:46:56.580Z,52.10
2019-03-15T12:49:45.880Z,52.60
2019-03-15T12:52:15.248Z,51.20
2019-03-15T12:57:51.674Z,51.10
2019-03-15T13:00:21.389Z,48.50
2019-03-15T13:02:50.658Z,47.60
2019-03-15T13:05:19.895Z,48.50
2019-03-15T13:07:49.046Z,48.50
2019-03-15T13:10:22.682Z,48.00
2019-03-15T13:12:51.937Z,49.50
2019-03-15T13:15:20.921Z,50.20
2019-03-15T13:17:49.836Z,50.20
2019-03-15T13:20:19.396Z,48.30
2019-03-15T13:22:48.337Z,50.50
2019-03-15T13:25:17.310Z,49.70
2019-03-15T13:27:46.224Z,48.90
2019-03-15T13:30:18.586Z,49.00
2019-03-15T13:32:47.458Z,49.70
2019-03-15T13:35:16.383Z,48.70
2019-03-15T13:37:45.365Z,47.50
2019-03-15T13:40:15.552Z,48.50
2019-03-15T13:42:44.501Z,46.70
2019-03-15T13:45:14.663Z,47.60
2019-03-15T13:47:43.791Z,46.60
2019-03-15T13:50:21.222Z,48.20
2019-03-15T13:52:50.173Z,46.00
2019-03-15T13:55:19.163Z,45.90
2019-03-15T13:57:48.059Z,46.40
2019-03-15T14:00:20.402Z,47.60
2019-03-15T14:02:49.367Z,47.60
2019-03-15T14:05:18.333Z,46.80
2019-03-15T14:07:47.269Z,46.80
2019-03-15T14:10:16.972Z,47.60
2019-03-15T14:12:46.064Z,48.50
2019-03-15T14:15:16.685Z,51.60
2019-03-15T14:17:45.587Z,53.30
2019-03-15T14:20:14.683Z,56.70
2019-03-15T14:22:43.682Z,58.20
2019-03-15T14:25:15.398Z,58.50
2019-03-15T14:27:44.311Z,60.20
2019-03-15T14:30:14.175Z,62.20
2019-03-15T14:32:43.070Z,62.30
2019-03-15T14:35:12.097Z,64.20
2019-03-15T14:37:41.067Z,62.70
2019-03-15T14:40:11.759Z,62.80
2019-03-15T14:42:41.209Z,61.90
2019-03-15T14:45:12.269Z,59.30
2019-03-15T14:47:41.253Z,57.60
2019-03-15T14:50:11.378Z,56.60
2019-03-15T14:52:40.444Z,57.40
2019-03-15T14:55:13.501Z,56.40
2019-03-15T14:57:51.806Z,56.20
2019-03-15T15:00:20.537Z,56.30
2019-03-15T15:02:49.556Z,54.80
2019-03-15T15:05:18.470Z,55.50
2019-03-15T15:07:47.410Z,56.00
2019-03-15T15:10:19.559Z,54.70
2019-03-15T15:12:48.504Z,54.40
2019-03-15T15:15:19.863Z,54.70
2019-03-15T15:17:49.018Z,55.70
2019-03-15T15:20:17.944Z,55.00
2019-03-15T15:22:56.418Z,55.30
2019-03-15T15:25:43.259Z,55.70
2019-03-15T15:28:11.404Z,57.50
2019-03-15T15:30:40.342Z,56.90
2019-03-15T15:33:09.287Z,57.80
2019-03-15T15:35:41.470Z,56.60
2019-03-15T15:38:08.889Z,55.50
2019-03-15T15:40:37.839Z,56.10
2019-03-15T15:43:06.884Z,57.10
2019-03-15T15:45:35.812Z,57.80
2019-03-15T15:48:04.783Z,58.20
2019-03-15T15:50:33.698Z,58.00
2019-03-15T15:53:02.669Z,58.20
2019-03-15T15:55:31.573Z,58.40
2019-03-15T15:58:00.563Z,58.80
2019-03-15T16:00:29.483Z,59.20
2019-03-15T16:02:58.456Z,59.20
2019-03-15T16:05:27.370Z,58.80
2019-03-15T16:07:56.781Z,58.60
2019-03-15T16:10:25.853Z,58.40
2019-03-15T16:12:54.745Z,58.20
2019-03-15T16:15:23.727Z,59.30
2019-03-15T16:17:52.651Z,60.00
2019-03-15T16:20:21.758Z,60.50
2019-03-15T16:22:50.862Z,61.30
2019-03-15T16:25:19.986Z,63.00
2019-03-15T16:27:49.192Z,64.40
2019-03-15T16:30:55.229Z,65.10
2019-03-15T16:34:00.838Z,65.00
2019-03-15T16:37:05.883Z,65.90
2019-03-15T16:39:45.494Z,65.60
2019-03-15T16:48:27.893Z,66.80
2019-03-15T16:51:19.113Z,68.00
2019-03-15T16:53:39.448Z,68.50
2019-03-15T16:56:08.538Z,69.80
2019-03-15T16:58:45.674Z,69.60
2019-03-15T17:01:23.002Z,70.30
2019-03-15T17:03:52.619Z,70.80
2019-03-15T17:06:21.817Z,71.40
2019-03-15T17:08:51.422Z,71.30
2019-03-15T17:11:51.905Z,71.10
2019-03-15T17:14:25.329Z,71.10
2019-03-15T17:20:10.446Z,72.20
2019-03-15T17:22:39.750Z,70.90
2019-03-15T17:25:12.749Z,71.60
2019-03-15T17:31:11.853Z,72.60
2019-03-15T17:37:06.677Z,74.10
2019-03-15T17:39:28.259Z,74.80
2019-03-15T17:53:01.880Z,76.00
2019-03-15T17:55:11.193Z,75.50
2019-03-15T17:57:40.175Z,75.30
2019-03-15T18:00:48.414Z,75.30
2019-03-15T18:04:10.017Z,74.70
2019-03-15T18:06:26.316Z,74.00
2019-03-15T18:08:55.446Z,75.60
2019-03-15T18:11:58.874Z,74.80
2019-03-15T18:14:27.557Z,74.70
2019-03-15T18:24:22.355Z,75.30
2019-03-15T18:26:51.448Z,75.00
2019-03-15T18:29:26.212Z,75.20
2019-03-15T18:31:52.457Z,75.20
2019-03-15T18:34:21.450Z,75.20
2019-03-15T18:36:50.525Z,75.10
2019-03-15T18:39:19.606Z,76.50
2019-03-15T18:48:44.887Z,76.80
2019-03-15T18:50:51.818Z,77.50
2019-03-15T18:53:22.269Z,77.70
2019-03-15T19:02:32.136Z,77.80
2019-03-15T19:05:14.889Z,77.00
2019-03-15T19:07:45.063Z,76.90
2019-03-15T19:10:16.430Z,76.80
2019-03-15T19:12:45.451Z,75.90
2019-03-15T19:15:30.163Z,76.20
2019-03-15T19:18:02.006Z,76.10
2019-03-15T19:20:32.414Z,76.00
2019-03-15T19:23:12.354Z,76.00
2019-03-15T19:26:11.434Z,76.10
2019-03-15T19:28:38.471Z,75.90
2019-03-15T19:31:08.436Z,75.50
2019-03-15T19:33:39.751Z,75.00
2019-03-15T19:36:09.912Z,75.60
2019-03-15T19:38:39.663Z,75.30
2019-03-15T19:41:09.417Z,75.90
2019-03-15T19:43:39.358Z,76.20
2019-03-15T19:46:09.609Z,76.30
2019-03-15T19:48:42.272Z,76.10
2019-03-15T19:51:12.179Z,76.30
2019-03-15T19:53:42.124Z,76.50
2019-03-15T19:56:11.733Z,76.40
2019-03-15T19:58:41.551Z,76.60
2019-03-15T20:01:11.913Z,76.80
2019-03-15T20:07:01.892Z,76.60
2019-03-15T20:09:31.902Z,76.50
2019-03-15T20:12:01.917Z,76.40
2019-03-15T20:14:34.964Z,76.10
2019-03-15T20:17:05.373Z,76.40
2019-03-15T20:19:35.780Z,76.60
2019-03-15T20:25:21.416Z,76.40
2019-03-15T20:35:06.989Z,76.60
2019-03-15T20:43:09.759Z,75.70
2019-03-15T20:45:57.186Z,75.80
2019-03-15T20:48:38.786Z,75.50
2019-03-15T20:51:11.484Z,75.30
2019-03-15T20:53:41.344Z,74.80
2019-03-15T20:56:10.501Z,74.70
2019-03-15T21:07:59.610Z,73.70
2019-03-15T21:10:29.878Z,73.80
2019-03-15T21:13:04.960Z,73.90
2019-03-15T21:16:01.734Z,74.10
2019-03-15T21:22:08.410Z,73.80
2019-03-15T21:24:38.426Z,73.80
2019-03-15T21:30:48.612Z,73.10
2019-03-15T21:33:21.917Z,73.50
2019-03-15T21:35:52.480Z,73.40
2019-03-15T21:38:22.877Z,72.90
2019-03-15T21:40:52.980Z,73.00
2019-03-15T21:47:17.230Z,73.40
2019-03-15T21:49:47.467Z,73.30
2019-03-15T22:01:54.423Z,73.60
2019-03-15T22:04:23.406Z,73.70
2019-03-15T22:06:57.929Z,74.10
2019-03-15T22:09:26.826Z,74.70
2019-03-15T22:12:46.345Z,74.70
2019-03-15T22:15:16.697Z,74.70
2019-03-15T22:18:28.253Z,74.70
2019-03-15T22:20:58.284Z,75.40
2019-03-15T22:23:36.483Z,75.10
2019-03-15T22:26:07.814Z,74.70
2019-03-15T22:28:36.814Z,75.10
2019-03-15T22:31:36.083Z,74.60
2019-03-15T22:34:25.209Z,74.50
2019-03-15T22:36:56.802Z,74.00
2019-03-15T22:39:27.124Z,73.70
2019-03-15T22:42:57.992Z,73.60
2019-03-15T22:45:25.193Z,74.00
2019-03-15T22:47:55.350Z,73.80
2019-03-15T22:50:25.567Z,73.40
2019-03-15T22:52:56.765Z,73.40
2019-03-15T22:55:26.980Z,73.90
2019-03-15T23:00:47.608Z,73.60
2019-03-15T23:03:16.758Z,74.00
2019-03-15T23:05:45.661Z,74.40
2019-03-15T23:08:14.683Z,74.70
2019-03-15T23:10:46.918Z,75.10
2019-03-15T23:13:14.156Z,75.10
2019-03-15T23:15:43.154Z,75.40
2019-03-15T23:18:13.170Z,75.00
2019-03-15T23:20:42.553Z,75.20
2019-03-15T23:26:50.061Z,75.20
2019-03-15T23:29:18.978Z,75.90
2019-03-15T23:32:37.926Z,74.60
2019-03-15T23:34:58.297Z,76.00
2019-03-15T23:40:29.605Z,78.70
2019-03-15T23:42:58.561Z,80.20
2019-03-15T23:45:27.592Z,80.00
2019-03-15T23:50:54.969Z,80.30
2019-03-15T23:53:43.822Z,80.00
2019-03-15T23:56:12.786Z,80.90
2019-03-15T23:58:41.774Z,81.50
